Altoona, Wisconsin
Current Conditions -  °F | °C
As of 6:56 PM on Wednesday 22 Oct 2014 (Local Time) from KEAU Reporting Station
Overcast Overcast  
Wind Chill: 56°   Ceiling: 4600
Heat Index: 56°   Visibility: 10mi
Dew Point: 35°   Wind: 8mph
Humidity: 45%   Direction: 150°SSE
Pressure: 30.13"   Gusts: NA
Location:  44.81°N, 91.43°W
Report Text: KEAU 222356Z 15007KT 10SM OVC046 13/02 A3013 RMK AO2 SLP207 T01330017 10156 20128 55011
Loading
Personal Weather Stations






























Interactive Weather Map
Tropical Storm Tracking
New forecast layout! Learn more

10-Day Weather Forecast

Advertisements
Track Severe Weather on mobile